Авиационная погода в аэропорту Новый

Регион: 
Погода METAR: 
UHHH 170300Z 24004MPS 210V310 CAVOK 23/M03 Q1001 R23R/090060 NOSIG RMK QFE744/0993
Время наблюдения
2021-05-17T03:00:00Z
Температура C
23.0
Точка росы
-3.0
Направление ветра
240
Скорость ветра (узлы)
8
Метео видимость
6.21
Явления погоды
Условия полета
VFR
Аэропорт подробнее: